Terminal Aerodrome Forecast
Issued by NWS

Home | Current Version | Previous Version | Text Only | Print | Product List | Glossary On
Versions: 1 2 3 4 5 6 7 8 9 10 11 12 13 14
000
FTUS43 KMQT 170520
TAFIWD
TAF
KIWD 170520Z 1706/1806 23010G17KT P6SM FEW200 WS010/24035KT
     FM170800 23008KT P6SM FEW200
     FM172300 19008KT P6SM FEW200=

USA.gov is the U.S. government's official web portal to all federal, state and local government web resources and services.